Time;durP1;ratioP1;P1;durP2;ratioP2;P2;SDS_P1;SDS_P2;PMS_P1;PMS_P2;Temp;Humidity;BMP_temperature;BMP_pressure;BME280_temperature;BME280_humidity;BME280_pressure;Samples;Min_cycle;Max_cycle;Signal;HPM_P1;HPM_P2
2022/05/03 00:01:28;;;;;;;;;;;;;;;9.91;44.51;99492.22;1763001;81;21580;-76
2022/05/03 00:04:15;;;;;;;5.92;2.98;;;;;;;9.92;44.27;99489.98;1762713;80;20167;-76
2022/05/03 00:07:16;;;;;;;4.37;3.15;;;;;;;9.92;44.24;99484.29;1759652;81;21564;-76
2022/05/03 00:10:08;;;;;;;7.08;3.08;;;;;;;9.92;44.12;99482.09;1759593;80;21071;-76
2022/05/03 00:12:47;;;;;;;5.95;2.72;;;;;;;9.94;44.17;99479.84;1759904;80;21104;-76
2022/05/03 00:15:15;;;;;;;7.72;2.65;;;;;;;9.95;44.21;99476.31;1724638;82;21779;-75
2022/05/03 00:17:43;;;;;;;7.83;2.92;;;;;;;9.96;44.00;99474.06;1728097;83;21581;-76
2022/05/03 00:20:10;;;;;;;3.70;2.72;;;;;;;9.98;44.00;99476.19;1729642;82;21732;-76
2022/05/03 00:22:37;;;;;;;3.80;2.70;;;;;;;9.99;43.93;99476.60;1705080;82;21937;-75
2022/05/03 00:25:05;;;;;;;4.25;3.17;;;;;;;10.01;43.92;99473.45;1728391;82;21557;-75
2022/05/03 00:27:31;;;;;;;4.33;3.10;;;;;;;10.03;43.86;99470.31;1760029;81;21518;-76
2022/05/03 00:29:58;;;;;;;3.75;2.72;;;;;;;10.08;43.89;99474.58;1760228;81;21544;-75
2022/05/03 00:32:28;;;;;;;3.37;2.60;;;;;;;10.08;43.88;99472.80;1760058;81;21126;-75
2022/05/03 00:34:57;;;;;;;3.83;2.62;;;;;;;10.10;43.83;99472.75;1760115;81;21070;-75
2022/05/03 00:37:23;;;;;;;7.97;2.40;;;;;;;10.13;43.75;99470.03;1759919;81;21118;-77
2022/05/03 00:39:50;;;;;;;4.78;2.50;;;;;;;10.16;43.66;99464.67;1759952;81;21055;-76
2022/05/03 00:42:20;;;;;;;5.42;2.50;;;;;;;10.19;43.59;99467.20;1760092;81;21118;-76
2022/05/03 00:45:16;;;;;;;4.58;2.55;;;;;;;10.22;43.53;99465.76;1759988;81;21066;-75
2022/05/03 00:47:55;;;;;;;5.72;2.92;;;;;;;10.27;44.08;99467.80;1759592;81;21050;-76
2022/05/03 00:50:41;;;;;;;5.87;2.62;;;;;;;10.27;44.49;99470.44;1759720;81;22353;-77
2022/05/03 00:53:19;;;;;;;2.90;2.70;;;;;;;10.21;46.05;99464.06;1760167;81;21129;-75
2022/05/03 00:56:21;;;;;;;3.02;2.35;;;;;;;10.14;45.89;99467.81;1758280;81;20964;-74
2022/05/03 00:59:20;;;;;;;3.20;2.70;;;;;;;10.07;45.80;99462.33;1760031;81;21769;-75
2022/05/03 01:02:04;;;;;;;6.72;3.17;;;;;;;10.01;46.21;99460.31;1759822;81;21077;-74
2022/05/03 01:04:52;;;;;;;3.98;2.80;;;;;;;9.95;45.76;99456.59;1760249;81;21078;-75
2022/05/03 01:07:30;;;;;;;7.55;2.80;;;;;;;9.94;45.54;99452.23;1759577;81;21018;-75
2022/05/03 01:10:18;;;;;;;5.28;2.92;;;;;;;9.94;45.23;99457.50;1759771;81;21102;-75
2022/05/03 01:13:04;;;;;;;3.87;2.20;;;;;;;9.97;45.06;99452.14;1761232;81;21241;-75
2022/05/03 01:15:34;;;;;;;5.33;3.00;;;;;;;10.02;45.04;99456.79;1759325;81;21319;-74
2022/05/03 01:18:15;;;;;;;5.17;2.80;;;;;;;10.08;44.97;99453.55;1759840;81;21014;-75
2022/05/03 01:21:03;;;;;;;5.53;2.85;;;;;;;10.11;45.14;99449.05;1759465;81;21126;-75
2022/05/03 01:24:10;;;;;;;3.60;2.77;;;;;;;10.15;45.11;99453.27;1759665;81;21117;-76
2022/05/03 01:27:02;;;;;;;4.70;2.87;;;;;;;10.20;44.97;99450.06;1756007;81;21114;-75
2022/05/03 01:29:34;;;;;;;3.42;2.85;;;;;;;10.27;45.05;99449.40;1726807;83;21593;-75
2022/05/03 01:32:06;;;;;;;4.12;2.50;;;;;;;10.32;45.15;99444.87;1726414;83;21106;-75
2022/05/03 01:34:34;;;;;;;2.40;2.20;;;;;;;10.35;45.03;99444.73;1726927;83;21043;-75
2022/05/03 01:37:21;;;;;;;5.30;2.60;;;;;;;10.39;44.58;99442.42;1726979;83;21050;-75
2022/05/03 01:40:13;;;;;;;4.90;3.02;;;;;;;10.49;44.51;99444.70;1726658;83;21589;-75
2022/05/03 01:42:51;;;;;;;5.55;2.70;;;;;;;10.55;44.26;99444.50;1677772;83;21097;-75
2022/05/03 01:45:42;;;;;;;7.40;3.00;;;;;;;10.61;44.25;99442.98;1726509;83;21136;-75
2022/05/03 01:51:44;;;;;;;6.00;2.55;;;;;;;10.66;44.19;99447.61;1684776;81;21001;-75
2022/05/03 01:54:40;;;;;;;4.00;2.52;;;;;;;10.64;44.39;99445.94;1744380;81;21102;-75
2022/05/03 01:57:41;;;;;;;3.30;2.98;;;;;;;10.58;44.68;99449.66;1726265;83;21051;-75
2022/05/03 02:00:10;;;;;;;8.30;3.20;;;;;;;10.50;44.82;99443.81;1726910;83;21133;-75
2022/05/03 02:03:32;;;;;;;12.95;2.85;;;;;;;10.43;44.88;99446.27;1726639;83;21050;-74
2022/05/03 02:06:10;;;;;;;5.53;3.05;;;;;;;10.36;45.09;99439.89;1702181;83;21062;-74
2022/05/03 02:08:52;;;;;;;5.53;2.95;;;;;;;10.30;45.38;99434.80;1703314;84;21147;-76
2022/05/03 02:11:30;;;;;;;5.58;3.17;;;;;;;10.22;45.59;99429.83;1709418;83;21671;-75
2022/05/03 02:17:13;;;;;;;6.80;3.25;;;;;;;10.13;45.99;99433.22;1720026;83;21025;-75
2022/05/03 02:20:27;;;;;;;5.53;3.05;;;;;;;10.09;46.23;99436.87;1720132;83;21089;-75
2022/05/03 02:23:08;;;;;;;3.58;3.05;;;;;;;10.06;46.31;99431.72;1667308;86;21153;-75
2022/05/03 02:26:16;;;;;;;4.42;2.95;;;;;;;10.02;46.27;99430.50;1716407;83;21121;-75
2022/05/03 02:28:45;;;;;;;6.28;2.95;;;;;;;10.01;46.29;99431.41;1687952;84;21023;-74
2022/05/03 02:31:21;;;;;;;5.92;3.40;;;;;;;10.02;46.23;99435.77;1688138;85;21055;-75
2022/05/03 02:34:35;;;;;;;6.87;3.37;;;;;;;10.02;46.44;99430.50;1702427;83;21081;-74
2022/05/03 02:37:10;;;;;;;4.10;3.12;;;;;;;10.03;46.58;99426.95;1724537;83;21216;-74
2022/05/03 02:39:42;;;;;;;7.15;2.87;;;;;;;10.03;47.00;99430.89;1724880;83;21059;-75
2022/05/03 02:42:09;;;;;;;4.15;3.10;;;;;;;10.03;47.55;99436.14;1698251;83;21133;-76
2022/05/03 02:44:36;;;;;;;5.03;3.10;;;;;;;10.00;47.68;99436.27;1700922;83;21095;-75
2022/05/03 02:47:06;;;;;;;8.38;3.37;;;;;;;9.93;47.73;99446.56;1725078;83;21093;-75
2022/05/03 02:49:44;;;;;;;3.90;3.25;;;;;;;9.88;48.03;99443.70;1724699;83;21179;-75
2022/05/03 02:52:31;;;;;;;6.62;3.17;;;;;;;9.83;47.99;99438.58;1724761;83;22091;-75
2022/05/03 02:55:21;;;;;;;4.58;3.30;;;;;;;9.81;48.13;99443.89;1725320;83;21608;-75
2022/05/03 02:58:06;;;;;;;5.35;4.10;;;;;;;9.78;48.48;99435.25;1726025;82;21077;-75
2022/05/03 03:04:05;;;;;;;7.95;4.72;;;;;;;9.82;48.33;99439.52;1724933;83;21793;-75
2022/05/03 03:06:35;;;;;;;7.00;5.53;;;;;;;9.84;48.56;99435.06;1724746;82;21101;-75
2022/05/03 03:09:03;;;;;;;7.55;6.03;;;;;;;9.89;49.00;99437.55;1702342;83;21019;-75
2022/05/03 03:11:57;;;;;;;6.42;4.80;;;;;;;9.90;50.04;99437.50;1724863;83;21598;-75
2022/05/03 03:14:46;;;;;;;5.80;4.78;;;;;;;9.91;48.91;99436.56;1725996;83;21093;-76
2022/05/03 03:17:13;;;;;;;5.87;3.83;;;;;;;9.93;48.85;99430.80;1726699;83;21549;-74
2022/05/03 03:20:08;;;;;;;5.65;4.17;;;;;;;9.94;48.50;99429.90;1726849;83;21003;-74
2022/05/03 03:22:47;;;;;;;6.60;4.67;;;;;;;9.96;47.85;99437.27;1727062;83;21026;-75
2022/05/03 03:25:16;;;;;;;7.85;4.28;;;;;;;10.04;48.39;99432.62;1727105;83;21090;-75
2022/05/03 03:27:45;;;;;;;7.37;4.70;;;;;;;10.09;48.75;99437.73;1726963;83;21125;-75
2022/05/03 03:30:13;;;;;;;5.95;4.00;;;;;;;10.12;48.65;99438.06;1726993;83;21102;-75
2022/05/03 03:32:47;;;;;;;7.47;3.72;;;;;;;10.15;48.50;99442.76;1726850;83;20998;-75
2022/05/03 03:35:14;;;;;;;8.15;4.53;;;;;;;10.18;48.46;99449.70;1738121;81;21145;-74
2022/05/03 03:37:46;;;;;;;13.80;4.60;;;;;;;10.21;48.44;99454.86;1757311;81;21033;-75
2022/05/03 03:40:15;;;;;;;12.50;4.83;;;;;;;10.24;49.43;99449.50;1725656;83;21118;-75
2022/05/03 03:42:43;;;;;;;8.98;4.08;;;;;;;10.27;49.82;99428.36;1757109;81;21145;-75
2022/05/03 03:45:13;;;;;;;6.30;3.40;;;;;;;10.35;50.29;99436.84;1756964;81;21069;-76
2022/05/03 03:47:41;;;;;;;4.85;2.85;;;;;;;10.50;48.24;99439.86;1725454;82;21075;-76
2022/05/03 03:50:09;;;;;;;4.85;2.70;;;;;;;10.78;47.82;99428.73;1756864;81;21019;-76
2022/05/03 03:52:40;;;;;;;4.10;2.60;;;;;;;11.07;47.09;99426.78;1756923;81;21073;-76
2022/05/03 03:55:11;;;;;;;3.20;2.58;;;;;;;11.26;46.17;99421.69;1725101;83;21113;-76
2022/05/03 03:57:38;;;;;;;6.75;3.00;;;;;;;11.46;44.63;99440.63;1757255;81;21034;-76
2022/05/03 04:00:09;;;;;;;4.17;3.17;;;;;;;11.80;44.61;99442.38;1756938;81;21022;-76
2022/05/03 04:02:41;;;;;;;;;;;;;;;11.96;44.15;99438.70;1724197;83;21130;-77
2022/05/03 04:05:15;;;;;;;5.12;2.72;;;;;;;11.99;43.90;99435.47;1723871;83;20566;-76
2022/05/03 04:07:42;;;;;;;;;;;;;;;12.00;43.96;99444.23;1726611;83;21178;-75
2022/05/03 04:10:09;;;;;;;4.95;3.12;;;;;;;11.98;43.96;99443.44;1723967;83;20128;-77
2022/05/03 04:12:35;;;;;;;5.70;3.17;;;;;;;11.92;44.16;99437.09;1724221;83;21353;-76
2022/05/03 04:15:03;;;;;;;6.08;3.40;;;;;;;11.87;44.30;99439.44;1723015;83;21116;-75
2022/05/03 04:17:29;;;;;;;9.05;3.67;;;;;;;11.83;44.75;99433.88;1748881;82;21110;-76
2022/05/03 04:19:56;;;;;;;12.35;3.67;;;;;;;11.81;44.80;99437.05;1748921;82;22207;-76
2022/05/03 04:22:28;;;;;;;5.42;3.60;;;;;;;11.79;45.18;99437.58;1748616;82;21597;-75
2022/05/03 04:24:55;;;;;;;13.50;3.62;;;;;;;11.77;45.16;99443.38;1748589;81;21697;-76
2022/05/03 04:27:22;;;;;;;5.83;3.60;;;;;;;11.77;45.35;99437.23;1748662;82;21570;-75
2022/05/03 04:29:49;;;;;;;4.75;3.00;;;;;;;11.78;45.33;99435.00;1749100;82;21468;-75
2022/05/03 04:32:15;;;;;;;4.85;3.08;;;;;;;11.82;45.34;99436.14;1748800;82;21821;-76
2022/05/03 04:34:42;;;;;;;4.72;2.77;;;;;;;11.88;45.78;99436.34;1748768;82;21127;-75
2022/05/03 04:37:08;;;;;;;7.37;3.42;;;;;;;11.92;45.61;99431.82;1749226;82;21064;-75
2022/05/03 04:39:35;;;;;;;4.85;3.62;;;;;;;11.97;45.59;99437.76;1748652;82;21550;-76
2022/05/03 04:42:03;;;;;;;5.55;3.33;;;;;;;12.03;45.70;99429.60;1749097;82;21082;-76
2022/05/03 04:44:30;;;;;;;6.47;2.83;;;;;;;12.12;45.73;99431.87;1748874;82;21564;-76
2022/05/03 04:46:56;;;;;;;11.15;2.90;;;;;;;12.25;45.78;99433.50;1748867;82;21056;-76
2022/05/03 04:49:23;;;;;;;5.70;2.83;;;;;;;12.38;45.62;99432.52;1748674;82;21052;-76
2022/05/03 04:51:49;;;;;;;6.30;2.72;;;;;;;12.52;45.33;99427.95;1748751;82;20996;-76
2022/05/03 04:54:15;;;;;;;4.05;2.25;;;;;;;12.67;45.29;99425.10;1749197;82;21141;-76
2022/05/03 04:56:53;;;;;;;5.20;2.25;;;;;;;12.81;44.15;99414.80;1748886;82;21175;-75
2022/05/03 04:59:20;;;;;;;4.35;2.50;;;;;;;12.99;43.38;99419.23;1746409;81;21016;-76
2022/05/03 05:01:47;;;;;;;2.47;2.20;;;;;;;13.16;43.04;99417.56;1748656;82;21138;-76
2022/05/03 05:04:13;;;;;;;5.03;2.50;;;;;;;13.33;42.20;99419.00;1749067;82;21059;-76
2022/05/03 05:06:40;;;;;;;5.55;2.12;;;;;;;13.54;42.78;99417.57;1748843;82;21054;-75
2022/05/03 05:09:07;;;;;;;2.33;2.10;;;;;;;13.73;42.11;99415.75;1749134;82;21135;-76
2022/05/03 05:11:34;;;;;;;4.78;2.15;;;;;;;13.90;40.98;99408.30;1749152;82;20979;-76
2022/05/03 05:14:01;;;;;;;1.92;1.80;;;;;;;14.06;41.72;99414.98;1745227;82;21109;-76
2022/05/03 05:16:28;;;;;;;14.10;2.10;;;;;;;14.22;40.86;99415.52;1725777;83;21171;-75
2022/05/03 05:18:54;;;;;;;2.35;1.80;;;;;;;14.34;41.00;99412.27;1725946;83;21069;-76
2022/05/03 05:21:20;;;;;;;7.60;1.98;;;;;;;14.48;39.33;99415.51;1726136;83;21115;-75
2022/05/03 05:23:47;;;;;;;8.28;1.98;;;;;;;14.63;40.15;99419.18;1726069;83;20993;-76
2022/05/03 05:26:14;;;;;;;3.60;1.80;;;;;;;14.73;40.53;99419.08;1726319;83;21025;-75
2022/05/03 05:28:41;;;;;;;4.92;2.83;;;;;;;14.80;40.72;99417.80;1725931;83;20994;-76
2022/05/03 05:31:07;;;;;;;11.65;3.47;;;;;;;14.85;41.40;99417.56;1726153;83;21139;-75
2022/05/03 05:33:35;;;;;;;9.13;2.98;;;;;;;14.86;41.02;99410.86;1726038;83;21642;-76
2022/05/03 05:36:02;;;;;;;6.22;2.60;;;;;;;14.90;41.38;99416.00;1725923;83;22167;-76
2022/05/03 05:38:29;;;;;;;2.30;2.10;;;;;;;14.92;39.94;99416.77;1725784;82;22335;-76
2022/05/03 05:40:55;;;;;;;10.30;2.60;;;;;;;14.98;39.51;99413.79;1743446;82;21035;-74
2022/05/03 05:43:22;;;;;;;14.83;7.67;;;;;;;15.06;38.98;99422.15;1732184;82;21014;-75
2022/05/03 05:45:48;;;;;;;32.53;14.63;;;;;;;15.11;39.06;99421.42;1731803;82;21160;-75
2022/05/03 05:48:15;;;;;;;91.20;42.38;;;;;;;15.15;39.10;99403.11;1747156;82;21146;-76
2022/05/03 05:50:42;;;;;;;130.20;57.05;;;;;;;15.22;38.68;99411.58;1701318;84;21137;-74
2022/05/03 05:55:54;;;;;;;;;;;;;;;15.41;37.50;99404.77;1703783;84;21160;-76
2022/05/03 05:58:20;;;;;;;112.32;48.70;;;;;;;15.55;37.57;99410.16;1701095;84;21194;-76
2022/05/03 06:00:47;;;;;;;72.53;35.10;;;;;;;15.63;37.23;99408.86;1747191;82;21071;-76
2022/05/03 06:03:15;;;;;;;118.30;51.25;;;;;;;15.68;36.36;99404.14;1700937;84;21081;-76
2022/05/03 06:05:42;;;;;;;19.00;8.15;;;;;;;15.72;35.76;99403.04;1747295;82;21106;-75
2022/05/03 06:08:09;;;;;;;26.50;9.73;;;;;;;15.72;35.32;99404.36;1732167;82;21104;-76
2022/05/03 06:10:36;;;;;;;11.78;5.37;;;;;;;15.73;35.75;99414.02;1725922;82;22030;-76
2022/05/03 06:13:03;;;;;;;9.85;5.08;;;;;;;15.73;35.40;99415.34;1730372;82;21663;-74
2022/05/03 06:15:30;;;;;;;8.10;3.47;;;;;;;15.70;36.02;99419.48;1723948;82;21049;-74
2022/05/03 06:17:57;;;;;;;4.72;1.90;;;;;;;15.62;36.36;99414.64;1720721;83;21026;-74
2022/05/03 06:20:24;;;;;;;4.28;1.92;;;;;;;15.59;36.23;99410.35;1720611;83;21132;-74
2022/05/03 06:22:52;;;;;;;9.83;2.30;;;;;;;15.58;36.69;99410.44;1720951;83;21140;-77
2022/05/03 06:25:18;;;;;;;6.50;2.65;;;;;;;15.59;36.35;99408.18;1721042;83;21049;-76
2022/05/03 06:27:46;;;;;;;4.67;2.80;;;;;;;15.63;37.05;99413.67;1720643;83;21604;-74
2022/05/03 06:30:13;;;;;;;4.80;2.67;;;;;;;15.64;36.14;99417.20;1720919;83;21007;-74
2022/05/03 06:32:43;;;;;;;4.28;1.80;;;;;;;15.60;35.83;99407.22;1720671;83;20976;-74
2022/05/03 06:35:09;;;;;;;7.65;2.30;;;;;;;15.56;36.25;99409.67;1720550;83;21337;-75
2022/05/03 06:37:37;;;;;;;3.90;1.90;;;;;;;15.52;36.61;99416.95;1720761;83;21165;-74
2022/05/03 06:40:07;;;;;;;7.50;3.02;;;;;;;15.51;36.10;99412.58;1720616;83;21109;-74
2022/05/03 06:42:39;;;;;;;7.40;2.90;;;;;;;15.52;36.69;99407.67;1720815;83;21089;-75
2022/05/03 06:45:07;;;;;;;21.62;8.68;;;;;;;15.54;36.42;99412.89;1721065;83;21035;-75
2022/05/03 06:47:34;;;;;;;7.72;3.42;;;;;;;15.59;36.87;99409.50;1721170;83;21112;-75
2022/05/03 06:50:01;;;;;;;6.12;2.55;;;;;;;15.68;37.07;99409.45;1720599;83;21069;-75
2022/05/03 06:52:30;;;;;;;6.95;2.47;;;;;;;15.78;37.21;99408.00;1720876;83;21003;-74
2022/05/03 06:54:58;;;;;;;3.25;1.60;;;;;;;15.91;36.59;99411.65;1720743;83;21200;-75
2022/05/03 06:57:25;;;;;;;6.40;2.65;;;;;;;16.02;36.69;99404.86;1720391;83;21608;-75
2022/05/03 06:59:53;;;;;;;4.42;2.05;;;;;;;16.15;36.39;99407.17;1720435;83;21138;-75
2022/05/03 07:02:20;;;;;;;3.60;1.87;;;;;;;16.28;34.91;99405.49;1720532;83;21109;-76
2022/05/03 07:04:47;;;;;;;5.05;1.80;;;;;;;16.39;34.12;99415.48;1721067;83;21073;-74
2022/05/03 07:07:13;;;;;;;7.70;2.02;;;;;;;16.48;33.72;99408.76;1720906;83;21030;-73
2022/05/03 07:09:41;;;;;;;3.12;2.12;;;;;;;16.53;34.08;99413.31;1720944;83;21181;-75
2022/05/03 07:12:09;;;;;;;4.90;2.42;;;;;;;16.52;33.61;99414.25;1720897;83;21060;-74
2022/05/03 07:14:36;;;;;;;8.53;2.70;;;;;;;16.53;34.37;99417.30;1721468;82;20979;-74
2022/05/03 07:17:04;;;;;;;4.30;2.12;;;;;;;16.50;34.53;99418.32;1727285;83;21561;-74
2022/05/03 07:25:01;;;;;;;;;;;;;;;16.28;35.69;99420.09;1730586;83;22030;-73
2022/05/03 07:27:28;;;;;;;4.30;1.80;;;;;;;16.24;35.60;99423.89;1727615;83;20784;-74
2022/05/03 07:29:55;;;;;;;4.12;1.90;;;;;;;16.25;35.15;99410.98;1719628;83;21486;-73
2022/05/03 07:32:22;;;;;;;7.92;1.95;;;;;;;16.31;34.07;99421.24;1719341;83;21477;-73
2022/05/03 07:34:48;;;;;;;2.72;1.87;;;;;;;16.34;34.89;99421.06;1719725;83;22076;-74
2022/05/03 07:37:14;;;;;;;4.62;1.60;;;;;;;16.38;34.64;99417.75;1719375;83;21761;-74
2022/05/03 07:39:41;;;;;;;9.18;2.58;;;;;;;16.43;34.96;99420.13;1719449;83;21093;-73
2022/05/03 07:42:08;;;;;;;6.55;2.70;;;;;;;16.47;35.77;99416.33;1719648;83;21133;-74
2022/05/03 07:44:34;;;;;;;9.83;2.45;;;;;;;16.48;35.59;99417.56;1719547;82;21144;-73
2022/05/03 07:47:02;;;;;;;2.75;2.02;;;;;;;16.54;36.40;99415.00;1727024;82;21010;-74
2022/05/03 07:49:29;;;;;;;4.90;2.17;;;;;;;16.62;37.06;99415.39;1731875;82;21173;-75
2022/05/03 07:51:55;;;;;;;7.25;2.37;;;;;;;16.67;36.63;99402.68;1732201;82;21053;-74
2022/05/03 07:54:22;;;;;;;5.15;2.33;;;;;;;16.76;36.70;99408.38;1732220;82;21014;-74
2022/05/03 07:56:48;;;;;;;6.03;2.10;;;;;;;16.75;36.43;99405.36;1732779;82;21058;-75
2022/05/03 07:59:15;;;;;;;10.53;2.35;;;;;;;16.73;36.49;99402.80;1732180;82;21057;-75
2022/05/03 08:01:42;;;;;;;3.60;2.10;;;;;;;16.73;36.16;99404.13;1732128;82;21099;-74
2022/05/03 08:04:08;;;;;;;7.08;1.98;;;;;;;16.75;35.98;99394.73;1733284;82;21155;-75
2022/05/03 08:06:36;;;;;;;1.92;1.82;;;;;;;16.82;35.96;99395.56;1735927;82;21043;-74
2022/05/03 08:09:03;;;;;;;5.28;2.10;;;;;;;16.97;36.51;99395.59;1735752;82;21050;-75
2022/05/03 08:11:30;;;;;;;5.05;2.40;;;;;;;17.14;36.69;99385.22;1735741;82;21081;-75
2022/05/03 08:13:57;;;;;;;4.42;2.17;;;;;;;17.36;34.65;99391.34;1735970;82;21808;-75
2022/05/03 08:16:24;;;;;;;4.80;1.85;;;;;;;17.56;34.81;99384.72;1735704;82;21526;-75
2022/05/03 08:18:51;;;;;;;2.50;1.60;;;;;;;17.74;34.21;99379.52;1735662;82;21087;-75
2022/05/03 08:21:17;;;;;;;5.50;1.92;;;;;;;17.90;33.48;99383.84;1736115;82;21034;-75
2022/05/03 08:23:44;;;;;;;29.95;11.75;;;;;;;18.04;33.60;99378.45;1735607;82;21070;-75
2022/05/03 08:26:11;;;;;;;7.40;2.30;;;;;;;18.15;32.93;99378.55;1735785;82;21483;-74
2022/05/03 08:28:38;;;;;;;4.58;2.17;;;;;;;18.18;32.42;99379.68;1735678;82;21505;-74
2022/05/03 08:31:05;;;;;;;3.77;1.60;;;;;;;18.18;31.54;99377.50;1735711;82;21011;-74
2022/05/03 08:33:33;;;;;;;6.35;1.90;;;;;;;18.12;32.30;99369.47;1736065;82;21150;-75
2022/05/03 08:35:59;;;;;;;3.42;1.72;;;;;;;18.09;31.91;99368.34;1735968;82;21074;-75
2022/05/03 08:43:58;;;;;;;2.52;2.00;;;;;;;18.27;32.32;99354.22;1719154;82;21193;-74
2022/05/03 08:46:24;;;;;;;4.97;2.30;;;;;;;18.38;31.26;99345.51;1735754;82;22194;-75
2022/05/03 08:49:02;;;;;;;3.85;2.62;;;;;;;18.48;31.42;99347.89;1735760;82;22115;-75
2022/05/03 08:51:29;;;;;;;2.30;1.85;;;;;;;18.61;31.58;99347.89;1735810;82;21804;-75
2022/05/03 08:53:56;;;;;;;7.42;2.47;;;;;;;18.79;30.65;99339.54;1735706;82;21561;-76
2022/05/03 08:56:22;;;;;;;6.08;1.62;;;;;;;18.91;31.61;99332.89;1735505;82;21941;-75
2022/05/03 08:58:49;;;;;;;4.40;1.60;;;;;;;19.06;30.34;99331.39;1735672;82;21573;-75
2022/05/03 09:01:15;;;;;;;3.67;1.82;;;;;;;19.09;28.49;99328.51;1736120;82;20976;-79
2022/05/03 09:03:42;;;;;;;2.37;1.55;;;;;;;19.01;29.11;99330.87;1735851;82;21233;-79
2022/05/03 09:06:08;;;;;;;6.08;1.60;;;;;;;18.91;28.91;99326.23;1735880;82;21015;-76
2022/05/03 09:08:34;;;;;;;9.18;3.33;;;;;;;18.83;28.32;99328.59;1735955;82;21027;-78
2022/05/03 09:11:13;;;;;;;3.67;1.30;;;;;;;18.85;28.12;99325.33;1735667;82;21096;-77
2022/05/03 09:13:39;;;;;;;4.67;1.52;;;;;;;18.98;28.31;99316.42;1735891;82;21014;-77
2022/05/03 09:16:16;;;;;;;3.87;1.50;;;;;;;19.20;28.60;99317.04;1743443;81;21201;-80
2022/05/03 09:18:45;;;;;;;2.58;1.60;;;;;;;19.36;27.83;99308.77;1751906;81;21108;-79
2022/05/03 09:24:11;;;;;;;3.15;1.65;;;;;;;19.45;27.58;99300.06;1752488;81;21130;-78
2022/05/03 09:26:39;;;;;;;5.22;2.60;;;;;;;19.36;27.90;99308.77;1752359;81;21043;-79
2022/05/03 09:29:11;;;;;;;5.30;1.52;;;;;;;19.27;27.52;99296.48;1752795;81;21110;-79
2022/05/03 09:31:47;;;;;;;5.58;1.95;;;;;;;19.16;28.08;99292.91;1752440;81;20976;-77
2022/05/03 09:34:26;;;;;;;4.50;1.30;;;;;;;19.04;28.69;99294.17;1752324;81;21576;-80
2022/05/03 09:36:55;;;;;;;3.65;1.55;;;;;;;19.01;30.03;99290.39;1750674;81;21016;-78
2022/05/03 09:39:27;;;;;;;6.65;1.70;;;;;;;19.11;29.92;99282.57;1752627;81;21109;-79
2022/05/03 09:42:19;;;;;;;4.45;1.80;;;;;;;19.20;29.70;99273.91;1752334;81;22013;-79
2022/05/03 09:44:58;;;;;;;3.10;1.60;;;;;;;19.33;30.10;99284.98;1752275;81;21055;-78
2022/05/03 09:47:27;;;;;;;4.05;1.50;;;;;;;19.43;29.34;99269.98;1750331;81;21091;-78
2022/05/03 09:49:53;;;;;;;7.40;1.67;;;;;;;19.54;28.84;99261.19;1752732;81;21545;-79
2022/05/03 09:52:37;;;;;;;3.08;1.75;;;;;;;19.68;29.13;99264.97;1752399;81;21463;-79
2022/05/03 09:55:09;;;;;;;3.72;1.47;;;;;;;19.79;30.23;99259.70;1752714;81;21791;-79
2022/05/03 09:57:40;;;;;;;3.92;1.67;;;;;;;19.99;28.63;99251.48;1752205;81;21032;-78
2022/05/03 10:00:10;;;;;;;3.52;1.70;;;;;;;20.12;28.66;99256.70;1752278;81;21540;-78
2022/05/03 10:02:42;;;;;;;3.47;1.60;;;;;;;20.24;28.30;99241.55;1730798;82;21059;-79
2022/05/03 10:05:11;;;;;;;4.75;1.37;;;;;;;20.33;28.18;99243.48;1746979;81;20996;-78
2022/05/03 10:07:43;;;;;;;4.37;1.62;;;;;;;20.34;27.75;99245.19;1750374;81;20972;-79
2022/05/03 10:10:10;;;;;;;5.20;1.40;;;;;;;20.34;29.61;99242.52;1750529;81;21549;-79
2022/05/03 10:12:37;;;;;;;5.45;1.67;;;;;;;20.39;27.47;99229.64;1750622;81;21126;-75
2022/05/03 10:15:05;;;;;;;1.50;1.40;;;;;;;20.31;28.09;99233.87;1750695;81;21110;-76
2022/05/03 10:20:40;;;;;;;4.87;1.60;;;;;;;20.18;29.11;99234.02;1755847;81;21235;-75
2022/05/03 10:23:25;;;;;;;11.28;1.55;;;;;;;20.16;27.63;99219.94;1755996;81;21549;-75
2022/05/03 10:25:55;;;;;;;13.72;1.65;;;;;;;20.14;27.96;99217.38;1756041;81;21103;-76
2022/05/03 10:28:22;;;;;;;5.37;1.60;;;;;;;20.14;28.43;99211.17;1756165;81;21020;-75
2022/05/03 10:31:10;;;;;;;8.15;1.80;;;;;;;20.12;27.62;99207.78;1755675;81;21043;-75
2022/05/03 10:33:38;;;;;;;5.67;1.70;;;;;;;20.07;27.47;99207.30;1755660;81;21168;-75
2022/05/03 10:36:35;;;;;;;6.95;1.80;;;;;;;20.07;27.32;99200.62;1755803;81;21056;-74
2022/05/03 10:39:20;;;;;;;6.60;2.08;;;;;;;20.06;27.37;99209.13;1755118;81;21149;-75
2022/05/03 10:42:02;;;;;;;8.18;1.75;;;;;;;19.98;27.69;99213.72;1755473;81;20996;-74
2022/05/03 10:44:55;;;;;;;2.70;1.70;;;;;;;19.95;27.22;99204.61;1755870;81;20992;-76
2022/05/03 10:47:48;;;;;;;2.35;1.30;;;;;;;20.03;27.26;99189.33;1755937;81;21052;-76
2022/05/03 10:50:32;;;;;;;6.20;2.10;;;;;;;20.27;26.01;99190.52;1755673;81;21052;-75
2022/05/03 10:53:05;;;;;;;5.05;1.70;;;;;;;20.39;27.14;99191.36;1755725;81;21090;-75
2022/05/03 10:55:40;;;;;;;2.47;1.72;;;;;;;20.55;27.19;99193.16;1753941;81;21043;-74
2022/05/03 10:58:28;;;;;;;4.97;1.85;;;;;;;20.57;27.01;99190.36;1756104;81;21099;-75
2022/05/03 11:01:21;;;;;;;11.08;2.10;;;;;;;20.50;27.09;99185.16;1755793;81;22208;-76
2022/05/03 11:04:00;;;;;;;4.75;1.77;;;;;;;20.36;26.86;99175.11;1755820;81;21055;-75
2022/05/03 11:06:34;;;;;;;3.27;1.67;;;;;;;20.28;27.43;99173.53;1755971;81;21538;-74
2022/05/03 11:11:44;;;;;;;2.30;1.45;;;;;;;20.11;28.08;99168.70;1755775;81;21091;-75
2022/05/03 11:14:22;;;;;;;4.97;1.60;;;;;;;20.00;27.52;99161.03;1755900;81;21562;-74
2022/05/03 11:17:05;;;;;;;2.08;1.27;;;;;;;19.95;27.57;99172.57;1743925;81;21012;-75
2022/05/03 11:19:34;;;;;;;3.25;1.50;;;;;;;19.90;26.81;99152.06;1730464;82;21512;-75
2022/05/03 11:22:01;;;;;;;3.40;1.77;;;;;;;19.88;27.19;99145.16;1730752;82;21018;-76
2022/05/03 11:24:32;;;;;;;4.08;1.50;;;;;;;19.91;27.35;99143.59;1730662;82;21092;-75
2022/05/03 11:27:05;;;;;;;2.30;1.82;;;;;;;20.00;27.20;99139.67;1730626;82;21102;-76
2022/05/03 11:29:35;;;;;;;7.15;3.55;;;;;;;20.10;28.32;99140.29;1730269;82;21127;-75
2022/05/03 11:32:04;;;;;;;7.55;4.62;;;;;;;20.19;27.41;99140.87;1730830;82;21061;-75
2022/05/03 11:34:31;;;;;;;10.98;5.72;;;;;;;20.21;26.99;99140.28;1730297;82;21063;-75
2022/05/03 11:37:00;;;;;;;19.87;2.65;;;;;;;20.23;26.81;99138.33;1730329;82;22071;-76
2022/05/03 11:39:26;;;;;;;1.75;1.50;;;;;;;20.33;26.52;99128.59;1730703;82;22114;-75
2022/05/03 11:41:53;;;;;;;7.65;1.52;;;;;;;20.44;26.53;99133.55;1730639;82;20994;-75
2022/05/03 11:44:20;;;;;;;2.05;1.60;;;;;;;20.45;25.32;99126.73;1730182;82;20958;-75
2022/05/03 11:46:48;;;;;;;3.40;1.62;;;;;;;20.38;26.14;99129.06;1730547;82;21025;-75
2022/05/03 11:49:16;;;;;;;1.92;1.50;;;;;;;20.28;26.28;99130.79;1730160;82;21083;-74
2022/05/03 11:57:40;;;;;;;3.90;2.20;;;;;;;19.93;25.94;99123.78;1673295;85;21041;-75
2022/05/03 12:00:10;;;;;;;9.40;2.87;;;;;;;19.93;25.37;99117.11;1717471;83;21059;-76
2022/05/03 12:02:40;;;;;;;5.92;2.22;;;;;;;19.98;25.67;99121.59;1673122;85;21005;-75
2022/05/03 12:05:17;;;;;;;5.78;1.90;;;;;;;19.97;25.54;99121.25;1740001;82;21125;-75
2022/05/03 12:07:54;;;;;;;2.80;1.40;;;;;;;19.94;25.57;99122.83;1738774;82;21324;-74
2022/05/03 12:10:29;;;;;;;2.02;1.42;;;;;;;19.88;25.74;99114.45;1738636;82;21057;-75
2022/05/03 12:13:16;;;;;;;4.95;2.00;;;;;;;19.75;25.89;99108.73;1740461;82;21121;-74
2022/05/03 12:15:58;;;;;;;3.77;1.77;;;;;;;19.72;26.50;99102.77;1737776;82;21161;-73
2022/05/03 12:18:42;;;;;;;3.80;1.80;;;;;;;19.74;26.41;99099.52;1750530;82;21054;-73
2022/05/03 12:21:14;;;;;;;5.53;1.85;;;;;;;19.74;25.98;99097.69;1724333;83;21111;-74
2022/05/03 12:23:44;;;;;;;8.33;1.87;;;;;;;19.70;26.87;99096.70;1724304;83;21205;-73
2022/05/03 12:26:18;;;;;;;7.28;1.67;;;;;;;19.65;27.44;99099.27;1750469;82;21095;-74
2022/05/03 12:28:54;;;;;;;4.03;1.75;;;;;;;19.63;27.41;99093.17;1751065;81;21522;-74
2022/05/03 12:31:24;;;;;;;8.03;2.02;;;;;;;19.61;28.03;99097.79;1750526;82;21235;-74
2022/05/03 12:33:56;;;;;;;3.55;1.60;;;;;;;19.60;27.36;99085.91;1750227;81;21063;-75
2022/05/03 12:36:36;;;;;;;4.50;1.42;;;;;;;19.58;27.96;99084.69;1750318;82;21028;-74
2022/05/03 12:39:22;;;;;;;3.25;1.82;;;;;;;19.56;27.97;99089.30;1748346;81;21109;-74